Time;durP1;ratioP1;P1;durP2;ratioP2;P2;SDS_P1;SDS_P2;PMS_P1;PMS_P2;Temp;Humidity;BMP_temperature;BMP_pressure;BME280_temperature;BME280_humidity;BME280_pressure;Samples;Min_cycle;Max_cycle;Signal;HPM_P1;HPM_P2
2022/02/22 15:36:25;;;;;;;14.93;2.50;;;22.10;38.40;;;;;;5106840;27;20472;-32
2022/02/22 15:38:52;;;;;;;34.85;3.80;;;22.10;35.70;;;;;;5102598;28;20410;-32
2022/02/22 15:41:18;;;;;;;41.58;4.03;;;22.10;35.70;;;;;;5104897;28;20087;-34
2022/02/22 15:43:44;;;;;;;41.92;4.53;;;;;;;;;;5070953;28;20024;-36
2022/02/22 15:46:11;;;;;;;54.63;5.57;;;22.40;70.00;;;;;;5088119;28;20084;-34
2022/02/22 15:48:37;;;;;;;41.33;5.15;;;22.40;35.30;;;;;;5106088;28;20147;-29
2022/02/22 15:51:04;;;;;;;41.08;4.78;;;22.50;58.70;;;;;;5088050;28;20020;-28
2022/02/22 15:53:30;;;;;;;28.10;3.28;;;22.50;34.30;;;;;;5105402;28;20077;-42
2022/02/22 15:55:56;;;;;;;42.55;3.88;;;22.50;34.40;;;;;;5104336;28;20092;-33
2022/02/22 15:58:23;;;;;;;61.75;4.80;;;22.60;34.60;;;;;;5105359;28;20092;-33
2022/02/22 16:00:49;;;;;;;46.28;3.90;;;22.60;34.80;;;;;;5104576;28;20063;-32
2022/02/22 16:03:16;;;;;;;66.25;4.82;;;22.60;34.00;;;;;;5105340;28;20073;-37
2022/02/22 16:05:42;;;;;;;38.42;4.55;;;22.50;36.60;;;;;;5105179;28;20076;-30
2022/02/22 16:08:08;;;;;;;38.70;3.38;;;22.40;33.90;;;;;;5088443;28;20574;-32
2022/02/22 16:10:35;;;;;;;43.20;4.85;;;22.30;33.80;;;;;;5105846;28;20485;-35
2022/02/22 16:13:01;;;;;;;54.05;5.70;;;22.20;34.30;;;;;;5104526;28;20207;-29
2022/02/22 16:15:28;;;;;;;41.33;5.68;;;22.10;34.40;;;;;;5104332;28;20096;-37
2022/02/22 16:17:56;;;;;;;44.28;4.55;;;22.10;34.30;;;;;;5071342;28;20039;-33
2022/02/22 16:20:23;;;;;;;46.35;4.78;;;22.10;34.30;;;;;;5088117;28;20080;-35
2022/02/22 16:22:49;;;;;;;30.88;3.88;;;22.10;34.40;;;;;;5104708;28;20073;-27
2022/02/22 16:25:16;;;;;;;23.80;4.10;;;22.10;34.30;;;;;;5110700;28;20072;-34
2022/02/22 16:27:43;;;;;;;28.77;3.53;;;22.10;33.70;;;;;;5107369;27;20072;-31
2022/02/22 16:30:10;;;;;;;78.63;8.38;;;22.10;34.30;;;;;;5104070;28;20075;-32
2022/02/22 16:32:37;;;;;;;132.05;8.48;;;22.20;44.00;;;;;;5103127;28;20553;-33
2022/02/22 16:35:04;;;;;;;66.68;5.13;;;22.20;62.40;;;;;;5101572;28;20547;-30
2022/02/22 16:37:32;;;;;;;81.68;5.85;;;22.10;34.20;;;;;;5104066;28;20069;-40
2022/02/22 16:39:59;;;;;;;52.75;5.95;;;22.10;34.10;;;;;;5099625;28;20080;-33
2022/02/22 16:42:25;;;;;;;77.53;8.10;;;22.10;34.20;;;;;;5103678;28;20096;-46
2022/02/22 16:44:52;;;;;;;103.38;10.93;;;22.10;34.20;;;;;;5101521;28;20072;-37
2022/02/22 16:47:19;;;;;;;99.25;7.90;;;22.10;34.30;;;;;;5074471;28;20116;-39
2022/02/22 16:49:45;;;;;;;96.25;9.13;;;22.10;34.20;;;;;;5074394;28;20077;-33
2022/02/22 16:52:12;;;;;;;92.20;8.63;;;22.10;34.20;;;;;;5073158;28;20527;-39
2022/02/22 16:54:38;;;;;;;77.07;7.45;;;22.10;34.20;;;;;;5072950;28;20087;-33
2022/02/22 16:57:05;;;;;;;56.50;6.85;;;22.10;33.70;;;;;;5056663;28;20100;-40
2022/02/22 16:59:31;;;;;;;51.60;5.65;;;22.10;34.20;;;;;;5089425;28;20208;-33
2022/02/22 17:01:57;;;;;;;79.65;8.40;;;22.10;34.10;;;;;;5056350;28;20065;-38
2022/02/22 17:04:24;;;;;;;109.03;13.00;;;22.00;34.10;;;;;;5089709;28;20069;-31
2022/02/22 17:06:50;;;;;;;96.53;11.80;;;22.00;33.60;;;;;;5089312;28;20105;-34
2022/02/22 17:09:16;;;;;;;122.78;11.88;;;22.00;34.40;;;;;;5089310;28;20129;-35
2022/02/22 17:11:43;;;;;;;96.43;9.65;;;22.00;34.00;;;;;;5089482;28;20799;-31
2022/02/22 17:14:09;;;;;;;83.03;9.48;;;22.00;34.70;;;;;;5090083;28;20059;-35
2022/02/22 17:16:37;;;;;;;75.82;10.32;;;22.30;45.10;;;;;;5087721;28;20031;-34
2022/02/22 17:19:04;;;;;;;78.93;9.35;;;22.20;34.80;;;;;;5088637;28;20088;-34
2022/02/22 17:21:31;;;;;;;63.58;6.75;;;22.30;34.70;;;;;;5089567;28;20527;-35
2022/02/22 17:23:57;;;;;;;48.95;6.22;;;22.30;34.30;;;;;;5088767;28;20201;-34
2022/02/22 17:26:23;;;;;;;60.60;5.72;;;22.40;34.00;;;;;;5090114;28;20104;-36
2022/02/22 17:28:50;;;;;;;55.35;6.50;;;22.40;34.20;;;;;;5071938;28;20221;-34
2022/02/22 17:31:16;;;;;;;45.10;5.68;;;22.40;34.50;;;;;;5089634;28;20544;-45
2022/02/22 17:33:43;;;;;;;46.75;5.20;;;22.50;34.70;;;;;;5088049;28;20088;-31
2022/02/22 17:36:10;;;;;;;66.55;6.57;;;22.50;34.80;;;;;;5071532;28;20601;-34
2022/02/22 17:38:39;;;;;;;54.92;6.00;;;22.50;35.60;;;;;;5069049;28;20083;-39
2022/02/22 17:41:05;;;;;;;44.22;5.13;;;22.50;35.30;;;;;;5069024;28;20220;-39
2022/02/22 17:43:34;;;;;;;37.90;3.58;;;22.50;34.30;;;;;;5072440;28;20553;-36
2022/02/22 17:46:00;;;;;;;34.08;3.75;;;22.50;34.40;;;;;;5087713;28;20454;-38
2022/02/22 17:48:26;;;;;;;27.73;3.90;;;22.50;34.50;;;;;;5072566;28;20077;-35
2022/02/22 17:50:53;;;;;;;28.60;3.53;;;22.50;34.40;;;;;;5088516;28;20169;-42
2022/02/22 17:53:19;;;;;;;22.52;3.00;;;22.60;34.40;;;;;;5073052;28;20173;-34
2022/02/22 17:55:46;;;;;;;26.50;3.35;;;22.60;34.30;;;;;;5089273;28;20087;-37
2022/02/22 17:58:13;;;;;;;27.77;3.15;;;22.60;34.60;;;;;;5087611;28;20535;-42
2022/02/22 18:00:39;;;;;;;16.10;2.67;;;22.60;34.30;;;;;;5089060;28;20083;-38
2022/02/22 18:03:06;;;;;;;15.80;2.50;;;22.60;34.00;;;;;;5087966;28;20069;-34
2022/02/22 18:05:32;;;;;;;28.92;3.40;;;22.60;34.10;;;;;;5087754;28;20076;-32
2022/02/22 18:08:01;;;;;;;27.02;2.55;;;22.60;34.50;;;;;;5088970;28;20076;-34
2022/02/22 18:10:27;;;;;;;36.75;2.83;;;22.60;34.20;;;;;;5087305;28;20083;-37
2022/02/22 18:12:54;;;;;;;44.17;3.10;;;22.60;34.50;;;;;;5071053;28;20077;-35
2022/02/22 18:15:23;;;;;;;34.33;2.75;;;22.60;34.50;;;;;;5074189;28;20183;-38
2022/02/22 18:17:51;;;;;;;52.90;3.55;;;22.60;34.30;;;;;;5071192;28;20099;-36
2022/02/22 18:20:18;;;;;;;33.15;4.88;;;22.70;34.50;;;;;;5083481;28;20076;-41
2022/02/22 18:22:46;;;;;;;39.80;4.38;;;22.70;34.60;;;;;;5068787;28;20065;-42
2022/02/22 18:25:13;;;;;;;62.03;5.38;;;22.80;34.70;;;;;;5083664;28;20084;-36
2022/02/22 18:27:39;;;;;;;46.22;4.85;;;22.80;34.00;;;;;;5088180;28;20072;-42
2022/02/22 18:30:07;;;;;;;46.53;3.80;;;22.70;34.60;;;;;;5071549;28;20087;-43
2022/02/22 18:32:34;;;;;;;53.53;10.80;;;22.60;34.80;;;;;;5087743;28;20086;-41
2022/02/22 21:44:02;;;;;;;516.83;145.32;;;22.20;83.80;;;;;;5167213;27;20479;-41
2022/02/22 21:46:29;;;;;;;679.50;239.30;;;;;;;;;;5123814;27;20030;-42
2022/02/22 21:48:55;;;;;;;601.03;198.70;;;22.40;89.10;;;;;;5127666;27;20403;-43
2022/02/22 21:51:23;;;;;;;651.70;248.00;;;22.60;45.00;;;;;;5125820;27;20109;-44
2022/02/22 21:53:51;;;;;;;613.95;235.35;;;22.70;46.50;;;;;;5124118;27;20073;-39
2022/02/22 21:56:19;;;;;;;542.10;185.85;;;22.70;44.70;;;;;;5147066;27;20126;-43
2022/02/22 21:58:46;;;;;;;510.30;171.93;;;;;;;;;;5127147;27;20617;-40
2022/02/22 22:01:13;;;;;;;533.97;188.75;;;22.80;42.60;;;;;;5146522;27;20115;-40
2022/02/22 22:03:39;;;;;;;471.98;173.48;;;22.80;43.10;;;;;;5128011;27;20095;-40
2022/02/22 22:06:06;;;;;;;437.42;150.48;;;22.80;41.10;;;;;;5127964;27;20115;-45
2022/02/22 22:08:32;;;;;;;367.13;134.73;;;22.80;41.60;;;;;;5124003;27;20110;-40
2022/02/22 22:10:59;;;;;;;352.40;132.27;;;22.80;40.70;;;;;;5127865;27;20550;-52
2022/02/22 22:41:52;;;;;;;138.15;38.03;;;23.50;40.00;;;;;;5085895;27;20550;-39
2022/02/22 22:44:18;;;;;;;116.05;35.78;;;23.30;39.80;;;;;;5086009;28;20077;-44
2022/02/22 22:46:44;;;;;;;138.50;31.83;;;23.20;41.00;;;;;;5084511;28;20179;-43
2022/02/22 22:49:11;;;;;;;124.97;33.83;;;23.20;40.90;;;;;;5067607;28;20074;-39
2022/02/22 22:51:38;;;;;;;98.43;27.90;;;23.20;40.90;;;;;;5084469;28;20174;-40
2022/02/22 22:54:05;;;;;;;106.75;32.03;;;23.20;40.20;;;;;;5086129;28;20091;-36
2022/02/22 22:56:32;;;;;;;88.80;29.08;;;23.30;43.00;;;;;;5084235;28;20437;-37
2022/02/22 22:58:58;;;;;;;86.05;25.52;;;23.30;41.60;;;;;;5086305;28;20072;-38
2022/02/22 23:01:25;;;;;;;68.68;22.08;;;23.30;41.30;;;;;;5065742;28;20095;-38
2022/02/22 23:03:52;;;;;;;118.25;24.10;;;23.20;40.10;;;;;;5085761;28;20109;-38
2022/02/22 23:14:36;;;;;;;63.83;18.02;;;23.40;41.50;;;;;;5089169;28;20140;-30
2022/02/22 23:17:03;;;;;;;72.78;17.20;;;23.40;41.00;;;;;;5086769;28;20092;-45
2022/02/22 23:19:29;;;;;;;60.25;14.95;;;23.40;41.00;;;;;;5083007;28;20095;-38
2022/02/22 23:21:58;;;;;;;47.42;12.85;;;23.50;40.60;;;;;;5082602;28;20075;-42
2022/02/22 23:24:25;;;;;;;98.20;15.88;;;23.50;39.70;;;;;;5081124;28;20534;-31
2022/02/22 23:26:52;;;;;;;45.00;13.00;;;23.50;39.80;;;;;;5082824;28;20087;-37
2022/02/22 23:29:18;;;;;;;40.35;11.98;;;23.50;40.10;;;;;;5084284;28;20120;-34
2022/02/22 23:33:58;;;;;;;46.35;11.20;;;23.40;40.60;;;;;;5122834;27;20462;-32
2022/02/22 23:36:25;;;;;;;41.63;12.38;;;23.60;43.40;;;;;;5104380;22;20485;-36
2022/02/22 23:38:52;;;;;;;45.92;12.02;;;23.70;44.60;;;;;;5058249;28;20079;-31
2022/02/22 23:41:18;;;;;;;40.38;12.02;;;23.80;44.50;;;;;;5039947;28;20077;-36
2022/02/22 23:43:45;;;;;;;45.83;12.05;;;23.80;44.50;;;;;;5038751;28;20089;-37
2022/02/22 23:46:11;;;;;;;51.83;11.88;;;23.80;44.60;;;;;;5039097;28;20100;-38
2022/02/22 23:48:38;;;;;;;68.32;11.20;;;24.20;64.10;;;;;;5020599;28;20069;-32
2022/02/22 23:51:04;;;;;;;46.75;9.35;;;23.80;81.00;;;;;;5028212;28;20025;-27
2022/02/22 23:53:31;;;;;;;39.63;10.15;;;;;;;;;;5015974;28;20117;-29
2022/02/22 23:55:57;;;;;;;38.38;8.73;;;24.80;45.50;;;;;;5040223;28;20033;-35
2022/02/22 23:58:24;;;;;;;36.92;7.47;;;25.20;70.10;;;;;;5041075;28;20056;-29
